FBKE

Kasane Airport

Kasane, Botswana
METAR FBKE 151800Z 13005KT CAVOK 29/M01 Q1015
Observed Flight Rules
Nov-15 @ 18:00 UTC (6 hours ago) Visual Flight Rules
Wind Visibility Clouds
130° at 5 knots 10,000+ meters
  • Clear skies
Temperatures Readings
Current 29°C / 84°F
Dewpoint -1°C / 30°F
Humidity 14%
Altimeter 29.97" Hg
Pressure 1015 hPa
Elevation 1000
METAR FBKE 151800Z 13005KT CAVOK 29/M01 Q1015
Observed Flight Rules
Nov-15 @ 18:00 UTC
(6 hours ago)
VFR
Wind Visibility
130° at 5 knots 10,000+ meters
Clouds
  • Clear skies
Temperature Dewpoint
29°C / 84°F -1°C / 30°F
Humidity Altimeter Pressure
14% 29.97" Hg 1015 hPa